createdAt,value
2019-02-05T00:00:59.341Z,3.20
2019-02-05T00:03:28.267Z,3.20
2019-02-05T00:05:57.496Z,3.20
2019-02-05T00:08:26.659Z,3.30
2019-02-05T00:10:56.240Z,3.30
2019-02-05T00:13:25.152Z,3.30
2019-02-05T00:15:54.311Z,3.30
2019-02-05T00:18:23.387Z,3.30
2019-02-05T00:20:52.351Z,3.30
2019-02-05T00:23:21.121Z,3.30
2019-02-05T00:25:50.240Z,3.30
2019-02-05T00:28:19.367Z,3.30
2019-02-05T00:30:48.148Z,3.30
2019-02-05T00:33:17.344Z,3.20
2019-02-05T00:35:46.597Z,3.10
2019-02-05T00:38:15.866Z,3.10
2019-02-05T00:40:45.059Z,3.10
2019-02-05T00:43:13.971Z,3.10
2019-02-05T00:45:42.820Z,3.00
2019-02-05T00:48:11.746Z,3.00
2019-02-05T00:50:40.767Z,3.00
2019-02-05T00:53:09.859Z,3.00
2019-02-05T00:55:38.681Z,3.00
2019-02-05T00:58:07.643Z,3.00
2019-02-05T01:00:36.818Z,2.90
2019-02-05T01:03:06.548Z,3.00
2019-02-05T01:05:35.395Z,3.00
2019-02-05T01:08:05.168Z,3.00
2019-02-05T01:10:34.368Z,3.00
2019-02-05T01:13:03.312Z,3.00
2019-02-05T01:15:32.283Z,2.90
2019-02-05T01:18:01.900Z,2.90
2019-02-05T01:20:30.777Z,3.00
2019-02-05T01:22:59.652Z,3.00
2019-02-05T01:25:28.654Z,3.00
2019-02-05T01:27:57.563Z,2.90
2019-02-05T01:30:27.315Z,2.80
2019-02-05T01:32:56.345Z,2.80
2019-02-05T01:35:25.253Z,2.90
2019-02-05T01:37:54.219Z,2.90
2019-02-05T01:40:24.575Z,2.90
2019-02-05T01:42:53.834Z,2.90
2019-02-05T01:45:23.190Z,2.90
2019-02-05T01:47:52.726Z,3.00
2019-02-05T01:50:23.785Z,3.00
2019-02-05T01:52:52.729Z,3.00
2019-02-05T01:55:22.206Z,3.00
2019-02-05T01:57:51.170Z,3.00
2019-02-05T02:00:22.289Z,2.90
2019-02-05T02:02:51.557Z,3.00
2019-02-05T02:05:20.705Z,2.90
2019-02-05T02:07:49.866Z,2.90
2019-02-05T02:10:21.398Z,2.90
2019-02-05T02:12:50.366Z,2.90
2019-02-05T02:15:19.386Z,2.90
2019-02-05T02:17:48.420Z,2.90
2019-02-05T02:20:18.206Z,2.90
2019-02-05T02:22:47.298Z,2.80
2019-02-05T02:25:17.393Z,2.80
2019-02-05T02:27:46.894Z,2.70
2019-02-05T02:30:24.597Z,2.70
2019-02-05T02:32:53.372Z,2.60
2019-02-05T02:35:22.330Z,2.60
2019-02-05T02:37:51.548Z,2.50
2019-02-05T02:40:20.378Z,2.50
2019-02-05T02:42:49.775Z,2.50
2019-02-05T02:45:18.766Z,2.40
2019-02-05T02:47:47.691Z,2.40
2019-02-05T02:50:17.337Z,2.40
2019-02-05T02:52:46.888Z,2.40
2019-02-05T02:55:16.562Z,2.40
2019-02-05T02:57:45.867Z,2.40
2019-02-05T03:00:17.287Z,2.40
2019-02-05T03:02:46.752Z,2.50
2019-02-05T03:05:17.539Z,2.50
2019-02-05T03:07:46.969Z,2.50
2019-02-05T03:10:24.168Z,2.60
2019-02-05T03:12:53.364Z,2.60
2019-02-05T03:15:22.284Z,2.60
2019-02-05T03:17:51.610Z,2.60
2019-02-05T03:20:20.839Z,2.60
2019-02-05T03:22:50.263Z,2.70
2019-02-05T03:25:20.670Z,2.70
2019-02-05T03:27:53.561Z,2.70
2019-02-05T03:30:21.747Z,2.70
2019-02-05T03:32:50.884Z,2.70
2019-02-05T03:35:20.210Z,2.70
2019-02-05T03:37:50.079Z,2.70
2019-02-05T03:41:07.088Z,2.80
2019-02-05T03:43:40.309Z,2.80
2019-02-05T03:46:11.308Z,2.80
2019-02-05T03:48:41.492Z,2.80
2019-02-05T03:51:36.818Z,2.70
2019-02-05T03:54:52.786Z,2.70
2019-02-05T03:58:08.575Z,2.70
2019-02-05T04:00:55.847Z,2.60
2019-02-05T04:04:05.050Z,2.60
2019-02-05T04:07:13.634Z,2.60
2019-02-05T04:10:32.464Z,2.50
2019-02-05T04:13:13.438Z,2.50
2019-02-05T04:16:18.001Z,2.50
2019-02-05T04:19:30.956Z,2.40
2019-02-05T04:22:41.361Z,2.40
2019-02-05T04:25:49.537Z,2.30
2019-02-05T04:28:27.905Z,2.40
2019-02-05T04:31:09.094Z,2.30
2019-02-05T04:34:05.007Z,2.30
2019-02-05T04:37:10.828Z,2.10
2019-02-05T04:40:05.996Z,2.20
2019-02-05T04:42:42.254Z,2.20
2019-02-05T04:45:42.376Z,2.20
2019-02-05T04:48:58.658Z,2.30
2019-02-05T04:52:29.601Z,2.30
2019-02-05T04:55:28.704Z,2.30
2019-02-05T04:58:19.899Z,2.20
2019-02-05T05:01:34.645Z,2.20
2019-02-05T05:04:41.960Z,2.10
2019-02-05T05:07:37.759Z,2.10
2019-02-05T05:10:07.904Z,2.00
2019-02-05T05:12:36.737Z,2.00
2019-02-05T05:15:08.080Z,2.00
2019-02-05T05:17:36.871Z,2.10
2019-02-05T05:20:08.178Z,2.10
2019-02-05T05:22:37.598Z,2.10
2019-02-05T05:25:09.033Z,2.20
2019-02-05T05:27:38.066Z,2.20
2019-02-05T05:30:13.583Z,2.20
2019-02-05T05:32:42.588Z,2.10
2019-02-05T05:35:11.734Z,2.10
2019-02-05T05:37:40.638Z,2.20
2019-02-05T05:40:09.949Z,2.20
2019-02-05T05:42:38.695Z,2.20
2019-02-05T05:45:10.192Z,2.20
2019-02-05T05:47:39.084Z,2.20
2019-02-05T05:50:10.913Z,2.20
2019-02-05T05:52:40.067Z,2.20
2019-02-05T05:55:09.555Z,2.20
2019-02-05T05:57:38.531Z,2.20
2019-02-05T06:00:10.966Z,2.30
2019-02-05T06:02:40.064Z,2.20
2019-02-05T06:05:09.343Z,2.20
2019-02-05T06:07:38.393Z,2.20
2019-02-05T06:10:08.721Z,2.30
2019-02-05T06:12:37.559Z,2.30
2019-02-05T06:15:07.681Z,2.20
2019-02-05T06:17:36.602Z,2.20
2019-02-05T06:20:07.192Z,2.00
2019-02-05T06:22:36.595Z,2.00
2019-02-05T06:25:05.669Z,2.10
2019-02-05T06:27:34.859Z,2.20
2019-02-05T06:30:04.464Z,2.20
2019-02-05T06:32:33.339Z,2.20
2019-02-05T06:35:02.688Z,2.20
2019-02-05T06:37:31.526Z,2.20
2019-02-05T06:40:00.442Z,2.20
2019-02-05T06:42:29.861Z,2.20
2019-02-05T06:44:58.702Z,2.30
2019-02-05T06:47:27.631Z,2.30
2019-02-05T06:49:56.767Z,2.30
2019-02-05T06:52:25.946Z,2.30
2019-02-05T06:54:54.750Z,2.30
2019-02-05T06:57:23.919Z,2.30
2019-02-05T06:59:53.246Z,2.30
2019-02-05T07:02:22.350Z,2.30
2019-02-05T07:04:51.277Z,2.30
2019-02-05T07:07:20.058Z,2.30
2019-02-05T07:09:49.102Z,2.30
2019-02-05T07:12:18.140Z,2.30
2019-02-05T07:14:47.610Z,2.30
2019-02-05T07:17:16.720Z,2.30
2019-02-05T07:19:45.574Z,2.20
2019-02-05T07:22:14.530Z,2.30
2019-02-05T07:24:43.651Z,2.30
2019-02-05T07:27:12.482Z,2.30
2019-02-05T07:29:41.494Z,2.30
2019-02-05T07:32:10.812Z,2.30
2019-02-05T07:34:39.662Z,2.30
2019-02-05T07:37:08.854Z,2.30
2019-02-05T07:39:37.796Z,2.40
2019-02-05T07:42:06.759Z,2.30
2019-02-05T07:44:35.515Z,2.40
2019-02-05T07:47:04.789Z,2.40
2019-02-05T07:49:34.042Z,2.40
2019-02-05T07:52:02.975Z,2.40
2019-02-05T07:54:31.870Z,2.50
2019-02-05T07:57:00.639Z,2.50
2019-02-05T07:59:29.399Z,2.50
2019-02-05T08:01:58.255Z,2.60
2019-02-05T08:04:27.284Z,2.60
2019-02-05T08:06:56.174Z,2.60
2019-02-05T08:09:25.427Z,2.60
2019-02-05T08:11:54.321Z,2.60
2019-02-05T08:14:23.150Z,2.60
2019-02-05T08:16:52.007Z,2.60
2019-02-05T08:19:20.835Z,2.70
2019-02-05T08:21:49.630Z,2.70
2019-02-05T08:24:18.648Z,2.70
2019-02-05T08:26:47.799Z,2.80
2019-02-05T08:29:21.644Z,2.80
2019-02-05T08:31:47.515Z,2.80
2019-02-05T08:34:16.700Z,2.80
2019-02-05T08:36:45.498Z,2.90
2019-02-05T08:39:14.578Z,2.90
2019-02-05T08:41:45.411Z,2.80
2019-02-05T08:44:14.702Z,2.80
2019-02-05T08:46:43.830Z,2.90
2019-02-05T08:49:12.709Z,2.80
2019-02-05T08:51:41.498Z,2.90
2019-02-05T08:54:10.346Z,2.90
2019-02-05T08:56:39.523Z,2.90
2019-02-05T08:59:08.463Z,2.90
2019-02-05T09:01:37.705Z,2.90
2019-02-05T09:04:06.587Z,2.90
2019-02-05T09:06:35.719Z,2.90
2019-02-05T09:09:08.003Z,3.00
2019-02-05T09:11:36.876Z,3.00
2019-02-05T09:14:10.889Z,3.00
2019-02-05T09:16:36.714Z,3.00
2019-02-05T09:19:06.041Z,3.10
2019-02-05T09:21:34.798Z,3.10
2019-02-05T09:24:03.659Z,3.20
2019-02-05T09:26:32.542Z,3.20
2019-02-05T09:29:01.647Z,3.20
2019-02-05T09:31:30.482Z,3.10
2019-02-05T09:33:59.847Z,3.10
2019-02-05T09:36:28.854Z,3.20
2019-02-05T09:38:58.288Z,3.20
2019-02-05T09:41:27.492Z,3.30
2019-02-05T09:43:58.779Z,3.30
2019-02-05T09:46:27.614Z,3.30
2019-02-05T09:48:56.727Z,3.40
2019-02-05T09:51:25.685Z,3.50
2019-02-05T09:53:54.842Z,3.60
2019-02-05T09:56:23.687Z,3.70
2019-02-05T09:58:52.920Z,3.70
2019-02-05T10:01:21.988Z,3.80
2019-02-05T10:03:51.116Z,3.90
2019-02-05T10:06:19.975Z,3.90
2019-02-05T10:08:49.140Z,4.00
2019-02-05T10:11:18.281Z,4.10
2019-02-05T10:13:47.452Z,4.10
2019-02-05T10:16:16.514Z,4.20
2019-02-05T10:18:46.115Z,4.20
2019-02-05T10:21:15.198Z,4.30
2019-02-05T10:23:44.178Z,4.30
2019-02-05T10:26:13.137Z,4.30
2019-02-05T10:28:41.976Z,4.20
2019-02-05T10:31:11.320Z,3.90
2019-02-05T10:33:40.428Z,3.80
2019-02-05T10:36:09.616Z,3.70
2019-02-05T10:38:38.761Z,3.90
2019-02-05T10:41:07.996Z,4.00
2019-02-05T10:43:37.186Z,4.20
2019-02-05T10:46:08.020Z,4.40
2019-02-05T10:48:37.146Z,4.60
2019-02-05T10:51:06.241Z,4.70
2019-02-05T10:53:35.028Z,4.80
2019-02-05T10:56:04.291Z,4.90
2019-02-05T10:58:33.343Z,5.00
2019-02-05T11:01:02.455Z,5.10
2019-02-05T11:03:31.443Z,5.20
2019-02-05T11:06:00.295Z,5.30
2019-02-05T11:08:29.356Z,5.30
2019-02-05T11:10:58.222Z,5.40
2019-02-05T11:13:27.004Z,5.40
2019-02-05T11:15:56.227Z,5.40
2019-02-05T11:18:25.558Z,5.30
2019-02-05T11:20:54.648Z,5.20
2019-02-05T11:23:23.898Z,5.30
2019-02-05T11:25:52.822Z,5.20
2019-02-05T11:28:21.612Z,5.20
2019-02-05T11:30:50.992Z,5.10
2019-02-05T11:33:20.270Z,5.00
2019-02-05T11:35:49.126Z,5.00
2019-02-05T11:38:17.987Z,5.00
2019-02-05T11:40:47.023Z,5.00
2019-02-05T11:43:16.098Z,5.00
2019-02-05T11:45:45.281Z,5.00
2019-02-05T11:48:16.680Z,5.00
2019-02-05T11:50:45.775Z,5.00
2019-02-05T11:53:14.947Z,5.00
2019-02-05T11:55:44.116Z,5.00
2019-02-05T11:58:13.639Z,5.10
2019-02-05T12:00:56.360Z,5.20
2019-02-05T12:03:25.207Z,5.20
2019-02-05T12:05:54.144Z,5.20
2019-02-05T12:08:22.912Z,5.20
2019-02-05T12:10:51.839Z,5.20
2019-02-05T12:13:20.618Z,5.30
2019-02-05T12:15:49.579Z,5.30
2019-02-05T12:18:18.634Z,5.20
2019-02-05T12:20:47.629Z,5.30
2019-02-05T12:23:16.555Z,5.30
2019-02-05T12:25:45.459Z,5.40
2019-02-05T12:28:14.424Z,5.50
2019-02-05T12:30:45.410Z,5.50
2019-02-05T12:33:14.626Z,5.50
2019-02-05T12:35:43.924Z,5.60
2019-02-05T12:38:12.974Z,5.60
2019-02-05T12:40:41.922Z,5.70
2019-02-05T12:43:10.776Z,5.80
2019-02-05T12:45:39.856Z,5.90
2019-02-05T12:48:08.781Z,6.10
2019-02-05T12:50:38.340Z,6.20
2019-02-05T12:53:08.026Z,6.30
2019-02-05T12:55:37.172Z,6.30
2019-02-05T12:58:06.386Z,6.30
2019-02-05T13:00:40.431Z,6.30
2019-02-05T13:03:10.082Z,6.20
2019-02-05T13:05:39.583Z,6.00
2019-02-05T13:08:09.098Z,5.90
2019-02-05T13:10:40.381Z,5.70
2019-02-05T13:13:09.708Z,5.60
2019-02-05T13:15:38.848Z,5.60
2019-02-05T13:18:08.406Z,5.50
2019-02-05T13:20:37.991Z,5.50
2019-02-05T13:23:08.060Z,5.60
2019-02-05T13:25:37.462Z,5.80
2019-02-05T13:28:08.234Z,6.00
2019-02-05T13:30:37.674Z,6.10
2019-02-05T13:33:07.283Z,6.20
2019-02-05T13:35:37.103Z,6.30
2019-02-05T13:38:06.307Z,6.30
2019-02-05T13:40:35.502Z,6.30
2019-02-05T13:43:05.163Z,6.40
2019-02-05T13:45:34.895Z,6.50
2019-02-05T13:48:04.702Z,6.60
2019-02-05T13:50:34.303Z,6.70
2019-02-05T13:53:03.230Z,6.70
2019-02-05T13:55:34.279Z,6.80
2019-02-05T13:58:03.189Z,6.80
2019-02-05T14:00:34.307Z,6.80
2019-02-05T14:03:03.324Z,6.70
2019-02-05T14:05:32.299Z,6.70
2019-02-05T14:08:01.536Z,6.60
2019-02-05T14:10:31.643Z,6.60
2019-02-05T14:13:00.998Z,6.50
2019-02-05T14:15:35.231Z,6.40
2019-02-05T14:18:04.936Z,6.30
2019-02-05T14:20:33.867Z,6.30
2019-02-05T14:23:02.723Z,6.40
2019-02-05T14:25:31.658Z,6.40
2019-02-05T14:28:00.549Z,6.40
2019-02-05T14:30:41.062Z,6.40
2019-02-05T14:33:10.002Z,6.40
2019-02-05T14:35:38.842Z,6.50
2019-02-05T14:38:08.711Z,6.60
2019-02-05T14:40:37.934Z,6.70
2019-02-05T14:43:09.525Z,6.70
2019-02-05T14:45:39.174Z,6.80
2019-02-05T14:48:08.872Z,6.70
2019-02-05T14:50:41.793Z,6.60
2019-02-05T14:53:11.813Z,6.60
2019-02-05T14:55:40.804Z,6.50
2019-02-05T14:58:11.238Z,6.40
2019-02-05T15:00:40.695Z,6.30
2019-02-05T15:03:11.011Z,6.30
2019-02-05T15:05:40.554Z,6.30
2019-02-05T15:08:10.175Z,6.40
2019-02-05T15:10:39.225Z,6.40
2019-02-05T15:13:08.440Z,6.40
2019-02-05T15:15:37.897Z,6.40
2019-02-05T15:18:08.959Z,6.40
2019-02-05T15:20:40.233Z,6.40
2019-02-05T15:23:09.590Z,6.40
2019-02-05T15:25:38.938Z,6.30
2019-02-05T15:28:08.747Z,6.30
2019-02-05T15:30:39.668Z,6.20
2019-02-05T15:33:40.391Z,6.20
2019-02-05T15:36:17.821Z,6.20
2019-02-05T15:38:46.993Z,6.10
2019-02-05T15:41:16.100Z,6.10
2019-02-05T15:43:45.619Z,6.10
2019-02-05T15:46:14.566Z,6.10
2019-02-05T15:48:43.684Z,6.00
2019-02-05T15:51:12.616Z,6.00
2019-02-05T15:53:41.459Z,6.00
2019-02-05T15:56:10.656Z,6.00
2019-02-05T15:58:39.444Z,5.80
2019-02-05T16:01:08.679Z,5.70
2019-02-05T16:03:37.527Z,5.70
2019-02-05T16:06:06.518Z,5.60
2019-02-05T16:08:35.617Z,5.50
2019-02-05T16:11:05.462Z,5.60
2019-02-05T16:13:34.360Z,5.60
2019-02-05T16:16:03.547Z,5.60
2019-02-05T16:18:32.660Z,5.70
2019-02-05T16:21:01.978Z,5.70
2019-02-05T16:23:30.920Z,5.70
2019-02-05T16:25:59.999Z,5.70
2019-02-05T16:28:29.172Z,5.70
2019-02-05T16:30:58.363Z,5.60
2019-02-05T16:33:27.492Z,5.60
2019-02-05T16:35:56.949Z,5.60
2019-02-05T16:38:25.799Z,5.60
2019-02-05T16:40:54.610Z,5.50
2019-02-05T16:43:23.744Z,5.50
2019-02-05T16:45:52.522Z,5.50
2019-02-05T16:48:22.578Z,5.50
2019-02-05T16:50:51.841Z,5.50
2019-02-05T16:53:20.740Z,5.50
2019-02-05T16:55:49.520Z,5.40
2019-02-05T16:58:18.403Z,5.40
2019-02-05T17:00:47.339Z,5.40
2019-02-05T17:03:16.627Z,5.40
2019-02-05T17:05:45.597Z,5.40
2019-02-05T17:08:14.967Z,5.40
2019-02-05T17:10:43.836Z,5.40
2019-02-05T17:13:12.935Z,5.40
2019-02-05T17:15:42.016Z,5.40
2019-02-05T17:18:11.120Z,5.30
2019-02-05T17:20:39.975Z,5.30
2019-02-05T17:23:09.083Z,5.30
2019-02-05T17:25:38.279Z,5.30
2019-02-05T17:28:07.564Z,5.30
2019-02-05T17:30:37.655Z,5.30
2019-02-05T17:33:07.087Z,5.30
2019-02-05T17:35:36.207Z,5.30
2019-02-05T17:38:06.955Z,5.30
2019-02-05T17:40:35.939Z,5.30
2019-02-05T17:43:05.861Z,5.30
2019-02-05T17:45:36.827Z,5.30
2019-02-05T17:48:12.197Z,5.30
2019-02-05T17:50:41.609Z,5.30
2019-02-05T17:53:10.518Z,5.30
2019-02-05T17:55:39.451Z,5.30
2019-02-05T17:58:08.598Z,5.30
2019-02-05T18:00:48.547Z,5.30
2019-02-05T18:03:17.456Z,5.30
2019-02-05T18:05:46.372Z,5.30
2019-02-05T18:08:15.227Z,5.30
2019-02-05T18:10:44.228Z,5.30
2019-02-05T18:13:13.080Z,5.30
2019-02-05T18:15:42.005Z,5.30
2019-02-05T18:18:11.164Z,5.30
2019-02-05T18:20:40.098Z,5.30
2019-02-05T18:23:09.204Z,5.30
2019-02-05T18:25:38.455Z,5.30
2019-02-05T18:28:08.127Z,5.30
2019-02-05T18:30:37.792Z,5.40
2019-02-05T18:33:07.185Z,5.40
2019-02-05T18:35:36.410Z,5.40
2019-02-05T18:38:06.066Z,5.40
2019-02-05T18:40:35.332Z,5.40
2019-02-05T18:43:04.286Z,5.40
2019-02-05T18:45:33.202Z,5.40
2019-02-05T18:48:02.059Z,5.40
2019-02-05T18:50:31.170Z,5.40
2019-02-05T18:53:00.043Z,5.40
2019-02-05T18:55:29.663Z,5.40
2019-02-05T18:58:08.789Z,5.40
2019-02-05T19:00:31.440Z,5.40
2019-02-05T19:03:00.372Z,5.40
2019-02-05T19:05:29.983Z,5.40
2019-02-05T19:07:58.875Z,5.40
2019-02-05T19:10:28.043Z,5.40
2019-02-05T19:12:57.192Z,5.40
2019-02-05T19:15:31.001Z,5.40
2019-02-05T19:18:00.083Z,5.30
2019-02-05T19:20:30.473Z,5.30
2019-02-05T19:22:59.718Z,5.30
2019-02-05T19:25:46.113Z,5.30
2019-02-05T19:28:22.023Z,5.30
2019-02-05T19:30:52.060Z,5.30
2019-02-05T19:33:27.360Z,5.30
2019-02-05T19:35:52.381Z,5.30
2019-02-05T19:38:21.310Z,5.30
2019-02-05T19:40:57.251Z,5.30
2019-02-05T19:43:23.197Z,5.30
2019-02-05T19:45:58.962Z,5.30
2019-02-05T19:48:32.616Z,5.20
2019-02-05T19:51:02.099Z,5.30
2019-02-05T19:53:31.254Z,5.30
2019-02-05T19:56:00.738Z,5.30
2019-02-05T19:58:30.431Z,5.30
2019-02-05T20:00:59.250Z,5.20
2019-02-05T20:03:38.376Z,5.20
2019-02-05T20:05:58.758Z,5.20
2019-02-05T20:08:28.176Z,5.20
2019-02-05T20:10:56.955Z,5.20
2019-02-05T20:13:26.048Z,5.20
2019-02-05T20:15:55.665Z,5.20
2019-02-05T20:18:24.632Z,5.20
2019-02-05T20:20:53.639Z,5.20
2019-02-05T20:23:22.799Z,5.20
2019-02-05T20:25:51.731Z,5.20
2019-02-05T20:28:20.597Z,5.20
2019-02-05T20:30:49.611Z,5.10
2019-02-05T20:33:18.580Z,5.10
2019-02-05T20:35:47.965Z,5.10
2019-02-05T20:38:17.089Z,5.10
2019-02-05T20:40:46.023Z,5.10
2019-02-05T20:43:14.851Z,5.00
2019-02-05T20:45:44.071Z,5.00
2019-02-05T20:48:13.582Z,5.00
2019-02-05T20:50:42.468Z,5.00
2019-02-05T20:53:13.950Z,5.00
2019-02-05T20:55:42.231Z,5.00
2019-02-05T20:58:11.068Z,5.00
2019-02-05T21:00:39.924Z,5.10
2019-02-05T21:03:08.925Z,5.10
2019-02-05T21:05:38.226Z,5.00
2019-02-05T21:08:07.162Z,5.10
2019-02-05T21:10:36.012Z,5.00
2019-02-05T21:13:04.975Z,5.00
2019-02-05T21:15:34.072Z,5.00
2019-02-05T21:18:02.982Z,5.00
2019-02-05T21:20:33.928Z,5.00
2019-02-05T21:23:03.150Z,5.00
2019-02-05T21:25:32.010Z,5.00
2019-02-05T21:28:00.915Z,5.10
2019-02-05T21:30:29.811Z,5.10
2019-02-05T21:32:58.650Z,5.10
2019-02-05T21:35:27.590Z,5.10
2019-02-05T21:37:57.095Z,5.10
2019-02-05T21:40:26.312Z,5.00
2019-02-05T21:42:55.180Z,5.00
2019-02-05T21:45:24.542Z,5.00
2019-02-05T21:47:53.678Z,4.90
2019-02-05T21:50:23.328Z,4.90
2019-02-05T21:52:52.343Z,4.90
2019-02-05T21:55:21.682Z,4.90
2019-02-05T21:57:50.621Z,4.90
2019-02-05T22:00:24.326Z,4.80
2019-02-05T22:02:53.288Z,4.80
2019-02-05T22:05:22.639Z,4.80
2019-02-05T22:07:51.546Z,4.90
2019-02-05T22:10:20.806Z,4.90
2019-02-05T22:12:49.859Z,4.80
2019-02-05T22:15:19.455Z,4.80
2019-02-05T22:17:48.325Z,4.90
2019-02-05T22:20:18.991Z,4.80
2019-02-05T22:22:47.941Z,4.90
2019-02-05T22:25:25.339Z,4.80
2019-02-05T22:27:54.915Z,4.90
2019-02-05T22:30:28.554Z,4.90
2019-02-05T22:32:57.487Z,4.90
2019-02-05T22:35:26.899Z,4.90
2019-02-05T22:37:56.761Z,4.80
2019-02-05T22:40:26.647Z,4.80
2019-02-05T22:42:55.827Z,4.70
2019-02-05T22:45:26.445Z,4.60
2019-02-05T22:47:55.356Z,4.60
2019-02-05T22:50:25.859Z,4.50
2019-02-05T22:52:54.892Z,4.40
2019-02-05T22:55:23.819Z,4.30
2019-02-05T22:57:52.998Z,4.30
2019-02-05T23:00:53.579Z,4.60
2019-02-05T23:03:38.356Z,4.10
2019-02-05T23:06:44.193Z,4.00
2019-02-05T23:09:19.243Z,3.90
2019-02-05T23:12:20.847Z,3.90
2019-02-05T23:14:53.873Z,3.90
2019-02-05T23:17:22.845Z,3.80
2019-02-05T23:19:51.791Z,3.70
2019-02-05T23:22:21.070Z,3.70
2019-02-05T23:24:49.934Z,3.60
2019-02-05T23:27:18.727Z,3.60
2019-02-05T23:29:47.519Z,3.60
2019-02-05T23:32:16.280Z,3.50
2019-02-05T23:34:45.363Z,3.50
2019-02-05T23:37:14.222Z,3.50
2019-02-05T23:39:43.301Z,3.50
2019-02-05T23:42:12.603Z,3.40
2019-02-05T23:44:42.706Z,3.40
2019-02-05T23:47:11.733Z,3.30
2019-02-05T23:49:40.607Z,3.30
2019-02-05T23:52:09.539Z,3.20
2019-02-05T23:54:38.602Z,3.20
2019-02-05T23:57:09.867Z,3.10
2019-02-05T23:59:38.386Z,3.10
